createdAt,value
2017-11-30T00:00:35.007Z,91.50
2017-11-30T00:03:01.574Z,91.60
2017-11-30T00:05:28.120Z,91.90
2017-11-30T00:07:54.732Z,92.00
2017-11-30T00:10:21.314Z,91.60
2017-11-30T00:12:48.276Z,91.40
2017-11-30T00:15:14.924Z,91.40
2017-11-30T00:17:41.487Z,91.30
2017-11-30T00:20:08.088Z,91.80
2017-11-30T00:22:34.843Z,92.00
2017-11-30T00:27:34.751Z,92.30
2017-11-30T00:30:01.376Z,92.60
2017-11-30T00:32:28.296Z,92.70
2017-11-30T00:34:54.896Z,92.70
2017-11-30T00:37:21.435Z,92.60
2017-11-30T00:39:47.983Z,92.90
2017-11-30T00:42:26.843Z,93.10
2017-11-30T00:44:53.382Z,92.90
2017-11-30T00:47:19.968Z,92.80
2017-11-30T00:49:46.627Z,92.80
2017-11-30T00:52:13.187Z,93.00
2017-11-30T00:54:40.127Z,92.60
2017-11-30T00:57:06.763Z,92.60
2017-11-30T00:59:33.359Z,92.60
2017-11-30T01:01:59.968Z,92.40
2017-11-30T01:04:26.568Z,92.60
2017-11-30T01:06:53.103Z,92.40
2017-11-30T01:09:19.639Z,92.90
2017-11-30T01:11:46.656Z,93.00
2017-11-30T01:14:13.200Z,93.10
2017-11-30T01:16:39.781Z,92.50
2017-11-30T01:19:06.380Z,92.70
2017-11-30T01:21:32.940Z,92.80
2017-11-30T01:23:59.486Z,92.90
2017-11-30T01:26:26.072Z,93.20
2017-11-30T01:28:52.976Z,94.10
2017-11-30T01:31:19.575Z,94.10
2017-11-30T01:33:46.264Z,94.40
2017-11-30T01:36:12.836Z,94.40
2017-11-30T01:38:39.397Z,94.10
2017-11-30T01:41:06.002Z,94.00
2017-11-30T01:43:32.541Z,94.10
2017-11-30T01:45:59.071Z,94.30
2017-11-30T01:48:26.038Z,93.70
2017-11-30T01:50:52.571Z,93.70
2017-11-30T01:53:19.535Z,93.80
2017-11-30T01:55:46.204Z,93.80
2017-11-30T01:58:12.778Z,94.00
2017-11-30T02:00:39.392Z,94.10
2017-11-30T02:03:05.991Z,94.30
2017-11-30T02:05:32.531Z,94.30
2017-11-30T02:07:59.083Z,94.50
2017-11-30T02:10:25.679Z,94.90
2017-11-30T02:12:52.224Z,94.90
2017-11-30T02:15:18.775Z,95.10
2017-11-30T02:17:45.375Z,95.20
2017-11-30T02:20:12.034Z,95.20
2017-11-30T02:22:38.680Z,95.00
2017-11-30T02:25:05.563Z,95.00
2017-11-30T02:27:32.563Z,94.80
2017-11-30T02:29:59.199Z,94.80
2017-11-30T02:32:26.086Z,94.80
2017-11-30T02:34:52.637Z,94.80
2017-11-30T02:37:19.254Z,94.80
2017-11-30T02:39:45.937Z,94.80
2017-11-30T02:42:12.556Z,94.90
2017-11-30T02:44:39.165Z,95.00
2017-11-30T02:47:06.195Z,94.70
2017-11-30T02:49:32.804Z,94.70
2017-11-30T02:51:59.410Z,94.70
2017-11-30T02:54:26.463Z,94.40
2017-11-30T02:56:53.084Z,94.40
2017-11-30T02:59:19.705Z,94.50
2017-11-30T03:01:46.403Z,94.60
2017-11-30T03:04:13.015Z,94.80
2017-11-30T03:06:39.603Z,94.60
2017-11-30T03:09:06.273Z,94.80
2017-11-30T03:11:33.258Z,94.50
2017-11-30T03:13:59.847Z,94.60
2017-11-30T03:16:26.485Z,94.50
2017-11-30T03:18:53.086Z,94.60
2017-11-30T03:21:20.024Z,94.00
2017-11-30T03:23:46.671Z,94.00
2017-11-30T03:26:13.708Z,94.10
2017-11-30T03:28:40.262Z,94.10
2017-11-30T03:31:06.854Z,93.80
2017-11-30T03:33:33.434Z,93.30
2017-11-30T03:36:00.022Z,92.90
2017-11-30T03:38:26.646Z,93.30
2017-11-30T03:40:53.229Z,93.50
2017-11-30T03:43:20.170Z,92.80
2017-11-30T03:45:46.796Z,92.80
2017-11-30T03:48:13.376Z,92.90
2017-11-30T03:50:47.348Z,93.00
2017-11-30T03:53:13.938Z,93.00
2017-11-30T03:55:40.500Z,92.90
2017-11-30T03:58:07.498Z,93.20
2017-11-30T04:00:34.041Z,93.20
2017-11-30T04:03:00.591Z,93.40
2017-11-30T04:05:27.195Z,93.60
2017-11-30T04:07:54.115Z,93.30
2017-11-30T04:10:20.669Z,93.30
2017-11-30T04:12:47.318Z,93.20
2017-11-30T04:15:13.868Z,93.00
2017-11-30T04:17:40.412Z,92.50
2017-11-30T04:20:14.012Z,92.60
2017-11-30T04:22:40.548Z,92.40
2017-11-30T04:25:07.130Z,92.40
2017-11-30T04:27:33.747Z,92.00
2017-11-30T04:30:00.306Z,91.80
2017-11-30T04:32:26.838Z,91.50
2017-11-30T04:34:53.438Z,91.60
2017-11-30T04:37:20.340Z,91.60
2017-11-30T04:39:46.887Z,91.60
2017-11-30T04:42:13.489Z,91.40
2017-11-30T04:44:40.021Z,91.30
2017-11-30T04:47:06.561Z,91.30
2017-11-30T04:49:33.142Z,90.70
2017-11-30T04:51:59.747Z,90.50
2017-11-30T04:54:26.311Z,90.00
2017-11-30T04:56:52.954Z,90.40
2017-11-30T04:59:19.559Z,90.50
2017-11-30T05:01:46.131Z,90.50
2017-11-30T05:04:12.740Z,90.60
2017-11-30T05:06:39.365Z,90.60
2017-11-30T05:09:06.408Z,89.80
2017-11-30T05:11:33.016Z,89.80
2017-11-30T05:13:59.647Z,89.20
2017-11-30T05:16:26.228Z,89.70
2017-11-30T05:18:52.823Z,90.20
2017-11-30T05:21:19.733Z,90.30
2017-11-30T05:23:46.280Z,90.30
2017-11-30T05:26:12.936Z,90.50
2017-11-30T05:28:39.542Z,90.60
2017-11-30T05:31:06.077Z,90.80
2017-11-30T05:33:32.727Z,90.60
2017-11-30T05:35:59.266Z,90.50
2017-11-30T05:38:25.825Z,90.20
2017-11-30T05:40:52.426Z,90.60
2017-11-30T05:43:18.992Z,90.30
2017-11-30T05:45:45.600Z,90.00
2017-11-30T05:48:12.197Z,90.10
2017-11-30T05:50:39.120Z,89.60
2017-11-30T05:53:05.664Z,89.60
2017-11-30T05:55:32.437Z,89.90
2017-11-30T05:57:58.979Z,90.10
2017-11-30T06:00:25.516Z,90.40
2017-11-30T06:02:52.202Z,90.20
2017-11-30T06:05:19.115Z,90.90
2017-11-30T06:07:45.660Z,90.90
2017-11-30T06:10:12.255Z,90.80
2017-11-30T06:12:39.184Z,90.90
2017-11-30T06:15:05.745Z,90.90
2017-11-30T06:17:32.447Z,91.00
2017-11-30T06:19:58.979Z,90.70
2017-11-30T06:22:25.518Z,90.80
2017-11-30T06:24:52.182Z,91.00
2017-11-30T06:27:18.768Z,90.90
2017-11-30T06:29:45.304Z,90.10
2017-11-30T06:32:11.982Z,90.30
2017-11-30T06:34:38.526Z,90.00
2017-11-30T06:37:05.077Z,90.00
2017-11-30T06:39:31.686Z,90.10
2017-11-30T06:41:58.272Z,90.30
2017-11-30T06:44:24.866Z,90.30
2017-11-30T06:46:51.475Z,90.20
2017-11-30T06:49:18.383Z,89.70
2017-11-30T06:51:44.991Z,89.80
2017-11-30T06:54:11.968Z,89.50
2017-11-30T06:56:38.570Z,89.50
2017-11-30T06:59:05.104Z,89.70
2017-11-30T07:01:31.694Z,89.50
2017-11-30T07:03:58.613Z,89.70
2017-11-30T07:06:25.554Z,89.80
2017-11-30T07:08:52.147Z,89.80
2017-11-30T07:11:19.092Z,89.50
2017-11-30T07:13:45.643Z,89.50
2017-11-30T07:16:12.627Z,89.40
2017-11-30T07:18:39.179Z,89.40
2017-11-30T07:21:05.736Z,89.30
2017-11-30T07:23:32.408Z,89.40
2017-11-30T07:25:58.976Z,88.90
2017-11-30T07:28:25.511Z,88.90
2017-11-30T07:30:52.143Z,89.10
2017-11-30T07:33:18.734Z,89.40
2017-11-30T07:35:45.328Z,89.40
2017-11-30T07:38:11.931Z,89.60
2017-11-30T07:40:38.515Z,89.40
2017-11-30T07:43:05.060Z,89.10
2017-11-30T07:45:31.689Z,89.00
2017-11-30T07:47:58.600Z,88.90
2017-11-30T07:50:25.136Z,88.90
2017-11-30T07:52:51.821Z,89.10
2017-11-30T07:55:18.748Z,89.10
2017-11-30T07:57:45.290Z,89.10
2017-11-30T08:00:11.915Z,89.00
2017-11-30T08:02:38.459Z,88.60
2017-11-30T08:05:05.003Z,89.10
2017-11-30T08:07:31.657Z,89.00
2017-11-30T08:09:58.198Z,89.20
2017-11-30T08:12:24.739Z,88.70
2017-11-30T08:14:51.342Z,88.90
2017-11-30T08:17:17.984Z,88.70
2017-11-30T08:19:44.537Z,88.40
2017-11-30T08:22:11.251Z,88.70
2017-11-30T08:24:37.829Z,88.70
2017-11-30T08:27:04.556Z,88.40
2017-11-30T08:29:31.179Z,88.40
2017-11-30T08:31:57.881Z,88.40
2017-11-30T08:34:24.503Z,88.10
2017-11-30T08:36:51.166Z,87.90
2017-11-30T08:39:17.718Z,87.80
2017-11-30T08:41:44.298Z,86.50
2017-11-30T08:44:10.972Z,87.20
2017-11-30T08:46:37.971Z,87.20
2017-11-30T08:49:04.630Z,87.20
2017-11-30T08:51:31.293Z,87.20
2017-11-30T08:53:57.840Z,87.30
2017-11-30T08:56:24.422Z,86.80
2017-11-30T08:58:51.431Z,87.10
2017-11-30T09:01:17.979Z,87.10
2017-11-30T09:03:44.542Z,86.70
2017-11-30T09:06:11.172Z,86.60
2017-11-30T09:08:38.147Z,86.80
2017-11-30T09:11:04.763Z,86.30
2017-11-30T09:13:31.637Z,86.20
2017-11-30T09:15:58.214Z,86.10
2017-11-30T09:18:24.786Z,86.40
2017-11-30T09:20:51.459Z,86.40
2017-11-30T09:23:18.071Z,86.50
2017-11-30T09:25:44.996Z,85.40
2017-11-30T09:28:11.743Z,85.40
2017-11-30T09:30:38.288Z,85.20
2017-11-30T09:33:04.835Z,85.40
2017-11-30T09:35:31.468Z,85.70
2017-11-30T09:37:58.011Z,86.20
2017-11-30T09:40:24.566Z,86.50
2017-11-30T09:42:51.164Z,86.30
2017-11-30T09:45:17.724Z,86.30
2017-11-30T09:47:44.272Z,84.70
2017-11-30T09:50:11.039Z,84.80
2017-11-30T09:52:37.658Z,84.50
2017-11-30T09:55:04.609Z,84.50
2017-11-30T09:57:31.401Z,84.50
2017-11-30T09:59:57.939Z,83.60
2017-11-30T10:02:24.474Z,83.30
2017-11-30T10:04:51.076Z,83.30
2017-11-30T10:07:17.726Z,83.80
2017-11-30T10:09:44.264Z,84.40
2017-11-30T10:12:10.858Z,84.80
2017-11-30T10:14:37.871Z,84.40
2017-11-30T10:17:04.428Z,84.40
2017-11-30T10:19:31.039Z,83.90
2017-11-30T10:21:57.583Z,84.40
2017-11-30T10:24:24.180Z,84.20
2017-11-30T10:26:50.826Z,83.90
2017-11-30T10:29:17.373Z,84.00
2017-11-30T10:31:43.927Z,83.50
2017-11-30T10:34:10.518Z,83.60
2017-11-30T10:36:37.055Z,84.40
2017-11-30T10:39:03.680Z,84.50
2017-11-30T10:41:30.707Z,84.10
2017-11-30T10:43:57.355Z,84.10
2017-11-30T10:46:23.915Z,83.70
2017-11-30T10:48:50.624Z,83.60
2017-11-30T10:51:17.158Z,83.00
2017-11-30T10:53:43.692Z,83.10
2017-11-30T10:56:10.661Z,83.20
2017-11-30T10:58:37.196Z,83.20
2017-11-30T11:01:04.129Z,82.10
2017-11-30T11:03:30.791Z,82.20
2017-11-30T11:05:58.089Z,82.80
2017-11-30T11:08:24.635Z,82.80
2017-11-30T11:10:51.502Z,82.90
2017-11-30T11:13:18.036Z,82.80
2017-11-30T11:15:44.587Z,82.60
2017-11-30T11:18:11.188Z,83.10
2017-11-30T11:20:37.735Z,83.30
2017-11-30T11:23:04.660Z,83.10
2017-11-30T11:25:31.445Z,83.10
2017-11-30T11:27:58.040Z,82.50
2017-11-30T11:30:26.003Z,83.40
2017-11-30T11:32:52.635Z,83.80
2017-11-30T11:35:20.039Z,83.50
2017-11-30T11:37:46.576Z,83.50
2017-11-30T11:40:13.180Z,83.30
2017-11-30T11:42:39.735Z,82.90
2017-11-30T11:45:06.667Z,82.60
2017-11-30T11:47:33.246Z,82.60
2017-11-30T11:50:00.184Z,82.90
2017-11-30T11:52:26.729Z,82.90
2017-11-30T11:54:53.397Z,82.90
2017-11-30T11:57:20.303Z,83.20
2017-11-30T11:59:46.856Z,83.20
2017-11-30T12:02:13.467Z,83.50
2017-11-30T12:04:40.012Z,84.20
2017-11-30T12:07:06.555Z,84.80
2017-11-30T12:09:33.235Z,85.30
2017-11-30T12:11:59.883Z,84.50
2017-11-30T12:14:26.431Z,84.50
2017-11-30T12:16:53.035Z,84.80
2017-11-30T12:19:19.952Z,84.70
2017-11-30T12:21:46.507Z,84.70
2017-11-30T12:24:13.525Z,85.30
2017-11-30T12:26:40.075Z,86.40
2017-11-30T12:29:07.215Z,86.90
2017-11-30T12:31:34.204Z,87.50
2017-11-30T12:34:00.768Z,87.50
2017-11-30T12:36:27.762Z,87.90
2017-11-30T12:38:54.459Z,87.80
2017-11-30T12:41:20.992Z,87.30
2017-11-30T12:43:54.345Z,87.40
2017-11-30T12:46:20.934Z,87.80
2017-11-30T12:48:47.495Z,88.10
2017-11-30T12:51:14.099Z,88.10
2017-11-30T12:53:40.744Z,88.40
2017-11-30T12:56:07.297Z,88.80
2017-11-30T12:58:34.742Z,88.80
2017-11-30T13:01:01.449Z,88.80
2017-11-30T13:03:28.046Z,88.90
2017-11-30T13:05:54.699Z,88.70
2017-11-30T13:08:21.302Z,88.70
2017-11-30T13:10:47.909Z,88.90
2017-11-30T13:13:14.656Z,89.90
2017-11-30T13:15:41.518Z,90.90
2017-11-30T13:18:08.147Z,91.40
2017-11-30T13:20:35.241Z,91.50
2017-11-30T13:23:02.233Z,92.20
2017-11-30T13:25:28.838Z,92.20
2017-11-30T13:27:55.517Z,92.50
2017-11-30T13:30:22.154Z,92.10
2017-11-30T13:32:49.796Z,91.50
2017-11-30T13:35:17.274Z,91.40
2017-11-30T13:37:43.869Z,91.40
2017-11-30T13:40:10.466Z,91.20
2017-11-30T13:42:37.050Z,90.30
2017-11-30T13:45:03.594Z,89.80
2017-11-30T13:47:30.130Z,90.10
2017-11-30T13:49:57.356Z,90.80
2017-11-30T13:52:24.544Z,90.90
2017-11-30T13:54:51.150Z,91.00
2017-11-30T13:57:17.751Z,90.20
2017-11-30T13:59:44.668Z,89.90
2017-11-30T14:02:11.223Z,89.90
2017-11-30T14:04:37.823Z,90.10
2017-11-30T14:07:04.634Z,89.90
2017-11-30T14:09:31.287Z,89.90
2017-11-30T14:11:57.889Z,90.30
2017-11-30T14:14:24.426Z,90.60
2017-11-30T14:16:50.958Z,90.60
2017-11-30T14:19:18.866Z,91.10
2017-11-30T14:21:45.418Z,91.10
2017-11-30T14:24:12.011Z,91.40
2017-11-30T14:26:38.666Z,91.60
2017-11-30T14:29:05.588Z,91.40
2017-11-30T14:31:32.158Z,91.40
2017-11-30T14:33:58.746Z,91.50
2017-11-30T14:36:25.286Z,91.30
2017-11-30T14:38:51.915Z,91.00
2017-11-30T14:41:19.142Z,90.70
2017-11-30T14:43:45.684Z,90.80
2017-11-30T14:46:12.218Z,90.80
2017-11-30T14:48:38.885Z,90.40
2017-11-30T14:51:05.431Z,90.40
2017-11-30T14:53:32.085Z,90.40
2017-11-30T14:55:58.758Z,90.60
2017-11-30T14:58:25.398Z,90.60
2017-11-30T15:00:52.041Z,90.70
2017-11-30T15:03:18.913Z,90.40
2017-11-30T15:05:45.457Z,90.50
2017-11-30T15:08:12.002Z,90.40
2017-11-30T15:10:38.654Z,89.30
2017-11-30T15:13:05.249Z,89.10
2017-11-30T15:15:31.858Z,89.10
2017-11-30T15:17:58.844Z,89.30
2017-11-30T15:20:26.482Z,89.30
2017-11-30T15:22:53.310Z,89.00
2017-11-30T15:25:19.894Z,89.30
2017-11-30T15:27:46.802Z,88.80
2017-11-30T15:30:14.522Z,88.80
2017-11-30T15:32:41.329Z,89.00
2017-11-30T15:35:07.870Z,89.20
2017-11-30T15:37:34.434Z,88.80
2017-11-30T15:40:01.022Z,89.10
2017-11-30T15:42:27.937Z,89.70
2017-11-30T15:44:54.515Z,89.60
2017-11-30T15:47:21.514Z,90.00
2017-11-30T15:49:48.050Z,90.00
2017-11-30T15:52:14.599Z,90.10
2017-11-30T15:54:41.217Z,90.10
2017-11-30T15:57:08.130Z,90.50
2017-11-30T15:59:34.673Z,90.50
2017-11-30T16:02:01.255Z,90.40
2017-11-30T16:04:28.177Z,90.00
2017-11-30T16:06:54.778Z,90.00
2017-11-30T16:09:21.754Z,90.00
2017-11-30T16:11:48.300Z,90.00
2017-11-30T16:14:14.826Z,89.90
2017-11-30T16:16:41.777Z,90.20
2017-11-30T16:19:08.309Z,90.20
2017-11-30T16:21:34.858Z,90.10
2017-11-30T16:24:01.437Z,90.30
2017-11-30T16:26:27.990Z,90.70
2017-11-30T16:28:54.547Z,90.90
2017-11-30T16:31:21.188Z,91.00
2017-11-30T16:33:47.743Z,91.10
2017-11-30T16:36:14.286Z,91.40
2017-11-30T16:38:40.882Z,91.30
2017-11-30T16:41:07.442Z,91.50
2017-11-30T16:43:33.978Z,91.80
2017-11-30T16:46:00.594Z,92.30
2017-11-30T16:48:27.163Z,92.40
2017-11-30T16:50:54.122Z,92.50
2017-11-30T16:53:20.810Z,92.50
2017-11-30T16:55:47.712Z,92.50
2017-11-30T16:58:14.270Z,92.50
2017-11-30T17:00:40.906Z,92.20
2017-11-30T17:03:07.446Z,92.80
2017-11-30T17:05:34.011Z,93.50
2017-11-30T17:08:00.597Z,93.70
2017-11-30T17:10:27.517Z,94.00
2017-11-30T17:12:54.078Z,94.00
2017-11-30T17:15:20.718Z,94.00
2017-11-30T17:17:47.277Z,94.10
2017-11-30T17:20:13.878Z,94.20
2017-11-30T17:22:40.586Z,94.10
2017-11-30T17:25:07.141Z,94.00
2017-11-30T17:27:34.091Z,93.80
2017-11-30T17:30:00.714Z,93.80
2017-11-30T17:32:27.351Z,93.80
2017-11-30T17:34:53.886Z,93.80
2017-11-30T17:37:20.581Z,93.80
2017-11-30T17:39:47.204Z,93.70
2017-11-30T17:42:13.818Z,93.60
2017-11-30T17:44:40.433Z,93.40
2017-11-30T17:47:06.999Z,93.20
2017-11-30T17:49:33.926Z,92.90
2017-11-30T17:52:00.517Z,92.90
2017-11-30T17:54:27.058Z,92.80
2017-11-30T17:56:53.602Z,92.60
2017-11-30T17:59:20.206Z,92.50
2017-11-30T18:01:46.750Z,92.50
2017-11-30T18:04:13.321Z,92.30
2017-11-30T18:06:39.930Z,92.30
2017-11-30T18:09:06.494Z,92.20
2017-11-30T18:11:33.046Z,92.10
2017-11-30T18:13:59.626Z,92.00
2017-11-30T18:16:26.525Z,91.70
2017-11-30T18:18:53.063Z,91.70
2017-11-30T18:21:19.670Z,91.80
2017-11-30T18:23:53.453Z,92.10
2017-11-30T18:26:20.037Z,92.10
2017-11-30T18:28:46.969Z,92.20
2017-11-30T18:31:13.638Z,92.20
2017-11-30T18:33:40.250Z,91.90
2017-11-30T18:36:06.826Z,91.70
2017-11-30T18:38:33.414Z,91.60
2017-11-30T18:41:00.180Z,91.50
2017-11-30T18:43:26.802Z,91.30
2017-11-30T18:45:53.349Z,91.20
2017-11-30T18:48:19.970Z,91.20
2017-11-30T18:50:46.526Z,91.00
2017-11-30T18:53:13.433Z,90.80
2017-11-30T18:55:40.046Z,90.80
2017-11-30T18:58:07.042Z,90.90
2017-11-30T19:00:33.642Z,90.80
2017-11-30T19:03:00.606Z,90.80
2017-11-30T19:05:27.522Z,91.00
2017-11-30T19:07:54.063Z,91.00
2017-11-30T19:10:20.681Z,91.30
2017-11-30T19:12:47.229Z,91.10
2017-11-30T19:15:13.830Z,91.30
2017-11-30T19:17:40.473Z,91.00
2017-11-30T19:20:07.017Z,90.90
2017-11-30T19:22:33.566Z,91.10
2017-11-30T19:25:00.166Z,91.30
2017-11-30T19:27:26.747Z,91.50
2017-11-30T19:29:53.301Z,91.50
2017-11-30T19:32:19.938Z,91.50
2017-11-30T19:34:46.492Z,91.30
2017-11-30T19:37:13.086Z,91.20
2017-11-30T19:39:40.097Z,91.30
2017-11-30T19:42:06.658Z,91.30
2017-11-30T19:44:33.462Z,91.30
2017-11-30T19:47:00.069Z,91.20
2017-11-30T19:49:26.891Z,91.30
2017-11-30T19:51:53.434Z,91.20
2017-11-30T19:54:20.144Z,90.50
2017-11-30T19:56:46.768Z,90.90
2017-11-30T19:59:13.496Z,90.00
2017-11-30T20:01:40.325Z,89.70
2017-11-30T20:04:06.882Z,89.70
2017-11-30T20:06:33.451Z,89.90
2017-11-30T20:09:00.763Z,90.00
2017-11-30T20:11:27.357Z,90.20
2017-11-30T20:13:53.983Z,90.50
2017-11-30T20:16:21.197Z,90.60
2017-11-30T20:18:48.190Z,90.10
2017-11-30T20:21:15.155Z,90.10
2017-11-30T20:23:41.767Z,89.20
2017-11-30T20:26:08.734Z,88.70
2017-11-30T20:28:35.532Z,88.70
2017-11-30T20:31:02.238Z,89.00
2017-11-30T20:33:28.962Z,89.40
2017-11-30T20:35:58.795Z,89.60
2017-11-30T20:38:29.202Z,90.10
2017-11-30T20:40:59.375Z,90.30
2017-11-30T20:43:26.719Z,90.30
2017-11-30T20:45:55.301Z,90.50
2017-11-30T20:48:23.147Z,90.70
2017-11-30T20:50:50.490Z,90.90
2017-11-30T20:53:17.384Z,90.90
2017-11-30T20:55:44.104Z,91.00
2017-11-30T20:58:10.933Z,90.90
2017-11-30T21:00:38.322Z,90.70
2017-11-30T21:03:19.986Z,90.70
2017-11-30T21:05:46.844Z,90.60
2017-11-30T21:08:13.652Z,90.40
2017-11-30T21:10:40.443Z,90.30
2017-11-30T21:13:07.288Z,90.20
2017-11-30T21:15:34.151Z,89.60
2017-11-30T21:18:00.923Z,89.20
2017-11-30T21:20:28.353Z,89.10
2017-11-30T21:22:55.184Z,89.10
2017-11-30T21:25:21.985Z,89.40
2017-11-30T21:27:48.951Z,89.20
2017-11-30T21:30:16.128Z,89.30
2017-11-30T21:32:43.374Z,88.90
2017-11-30T21:35:10.247Z,88.90
2017-11-30T21:37:37.155Z,89.00
2017-11-30T21:40:03.985Z,89.00
2017-11-30T21:42:30.892Z,88.90
2017-11-30T21:44:57.859Z,89.30
2017-11-30T21:47:24.866Z,89.50
2017-11-30T21:49:51.570Z,89.50
2017-11-30T21:52:18.497Z,90.00
2017-11-30T21:54:45.046Z,90.00
2017-11-30T21:57:11.646Z,90.10
2017-11-30T21:59:38.253Z,89.30
2017-11-30T22:02:04.831Z,88.50
2017-11-30T22:04:31.430Z,88.10
2017-11-30T22:06:57.982Z,87.90
2017-11-30T22:09:24.522Z,88.10
2017-11-30T22:11:51.388Z,88.10
2017-11-30T22:14:17.941Z,88.40
2017-11-30T22:16:44.493Z,88.40
2017-11-30T22:19:11.496Z,88.50
2017-11-30T22:21:38.085Z,88.50
2017-11-30T22:24:05.054Z,87.90
2017-11-30T22:26:31.662Z,87.90
2017-11-30T22:28:58.245Z,87.80
2017-11-30T22:31:24.794Z,87.80
2017-11-30T22:33:51.465Z,87.50
2017-11-30T22:36:18.041Z,87.50
2017-11-30T22:38:44.612Z,87.00
2017-11-30T22:41:11.225Z,86.90
2017-11-30T22:43:37.781Z,86.90
2017-11-30T22:46:04.329Z,87.10
2017-11-30T22:48:30.938Z,87.20
2017-11-30T22:50:57.494Z,87.60
2017-11-30T22:53:24.443Z,87.70
2017-11-30T22:55:51.430Z,88.00
2017-11-30T22:58:17.995Z,88.00
2017-11-30T23:00:44.533Z,87.90
2017-11-30T23:03:11.142Z,87.70
2017-11-30T23:05:38.061Z,87.80
2017-11-30T23:08:19.537Z,87.80
2017-11-30T23:10:46.073Z,88.10
2017-11-30T23:13:12.626Z,88.10
2017-11-30T23:15:39.254Z,87.90
2017-11-30T23:18:06.210Z,87.90
2017-11-30T23:20:33.126Z,87.60
2017-11-30T23:22:59.750Z,87.60
2017-11-30T23:25:26.317Z,87.60
2017-11-30T23:27:52.906Z,87.60
2017-11-30T23:30:19.930Z,87.60
2017-11-30T23:32:46.701Z,87.60
2017-11-30T23:35:13.320Z,87.80
2017-11-30T23:37:39.905Z,88.20
2017-11-30T23:40:06.830Z,88.80
2017-11-30T23:42:33.369Z,88.80
2017-11-30T23:45:00.011Z,88.80
2017-11-30T23:47:26.558Z,89.20
2017-11-30T23:49:53.101Z,89.30
2017-11-30T23:52:19.702Z,89.60
2017-11-30T23:54:46.610Z,89.20
2017-11-30T23:57:13.149Z,89.20
2017-11-30T23:59:39.747Z,89.80
